Time;durP1;ratioP1;P1;durP2;ratioP2;P2;SDS_P1;SDS_P2;PMS_P1;PMS_P2;Temp;Humidity;BMP_temperature;BMP_pressure;BME280_temperature;BME280_humidity;BME280_pressure;Samples;Min_cycle;Max_cycle;Signal;HPM_P1;HPM_P2
2022/03/30 00:01:00;;;;;;;;;;;;;;;10.63;41.76;91632.16;2065275;69;20169;-75
2022/03/30 00:03:25;;;;;;;;;;;;;;;10.50;42.55;91626.63;2065249;69;20050;-74
2022/03/30 00:05:51;;;;;;;;;;;;;;;10.55;42.36;91626.16;2052208;70;20161;-75
2022/03/30 00:08:17;;;;;;;;;;;;;;;10.54;41.25;91624.00;2052297;69;20149;-76
2022/03/30 00:10:42;;;;;;;;;;;;;;;10.27;42.91;91622.09;2064859;69;20055;-75
2022/03/30 00:13:10;;;;;;;;;;;;;;;10.29;42.52;91622.91;2052172;70;20409;-76
2022/03/30 00:15:36;;;;;;;;;;;;;;;9.98;44.34;91622.88;2051797;70;20109;-75
2022/03/30 00:18:01;;;;;;;;;;;;;;;10.14;44.16;91621.53;2052393;69;20570;-76
2022/03/30 00:20:27;;;;;;;;;;;;;;;10.23;43.70;91624.72;2065020;69;20047;-74
2022/03/30 00:22:52;;;;;;;;;;;;;;;10.23;43.99;91619.81;2065236;69;20062;-74
2022/03/30 00:25:20;;;;;;;;;;;;;;;10.18;43.71;91632.25;2052294;70;20123;-77
2022/03/30 00:27:46;;;;;;;;;;;;;;;10.19;42.95;91620.34;2052105;70;20057;-76
2022/03/30 00:30:13;;;;;;;;;;;;;;;10.17;41.74;91613.91;2065218;69;20047;-73
2022/03/30 00:32:38;;;;;;;;;;;;;;;10.16;43.42;91615.97;2052453;69;20123;-73
2022/03/30 00:35:05;;;;;;;;;;;;;;;9.99;43.97;91618.69;2052370;70;20046;-75
2022/03/30 00:37:31;;;;;;;;;;;;;;;9.84;44.18;91623.66;2052342;69;20058;-75
2022/03/30 00:39:56;;;;;;;;;;;;;;;9.81;45.17;91621.41;2052446;70;20520;-74
2022/03/30 00:42:22;;;;;;;;;;;;;;;9.76;45.23;91625.38;2052243;70;20479;-75
2022/03/30 00:44:48;;;;;;;;;;;;;;;9.93;43.92;91616.34;2065084;69;20055;-74
2022/03/30 00:47:15;;;;;;;;;;;;;;;9.70;45.37;91614.59;2064976;69;20073;-75
2022/03/30 00:49:40;;;;;;;;;;;;;;;9.85;44.92;91616.72;2061945;69;20054;-75
2022/03/30 00:52:06;;;;;;;;;;;;;;;9.85;44.74;91604.72;2052190;70;20050;-76
2022/03/30 00:54:33;;;;;;;;;;;;;;;9.85;44.93;91616.72;2052167;70;20563;-75
2022/03/30 00:56:59;;;;;;;;;;;;;;;9.44;46.25;91614.09;2052153;70;20074;-75
2022/03/30 00:59:25;;;;;;;;;;;;;;;9.76;43.53;91612.06;2064816;69;20066;-77
2022/03/30 01:01:51;;;;;;;;;;;;;;;9.66;45.09;91603.88;2052148;70;20047;-76
2022/03/30 01:04:17;;;;;;;;;;;;;;;9.73;44.37;91616.16;2065068;69;20043;-77
2022/03/30 01:06:43;;;;;;;;;;;;;;;9.81;43.26;91610.19;2052174;70;20174;-76
2022/03/30 01:09:08;;;;;;;;;;;;;;;10.08;42.13;91612.81;2065072;69;20090;-75
2022/03/30 01:11:34;;;;;;;;;;;;;;;10.00;43.21;91603.31;2051983;70;21014;-75
2022/03/30 01:14:00;;;;;;;;;;;;;;;9.71;45.05;91607.59;2051621;70;20247;-76
2022/03/30 01:16:28;;;;;;;;;;;;;;;9.57;45.70;91606.94;2051841;70;20462;-75
2022/03/30 01:19:07;;;;;;;;;;;;;;;9.64;45.17;91600.25;2051845;70;20097;-76
2022/03/30 01:21:34;;;;;;;;;;;;;;;9.63;46.00;91602.34;2051656;70;20057;-76
2022/03/30 01:23:59;;;;;;;;;;;;;;;9.67;45.43;91599.72;2052044;70;20081;-75
2022/03/30 01:26:26;;;;;;;;;;;;;;;9.73;45.27;91598.56;2064724;69;20449;-75
2022/03/30 01:28:51;;;;;;;;;;;;;;;9.67;44.67;91590.59;2062126;69;20047;-76
2022/03/30 01:34:02;;;;;;;;;;;;;;;9.75;44.42;91579.69;2051847;70;20116;-76
2022/03/30 01:36:28;;;;;;;;;;;;;;;9.89;42.40;91568.38;2051934;70;20162;-75
2022/03/30 01:38:53;;;;;;;;;;;;;;;9.80;44.85;91570.09;2051642;69;20180;-77
2022/03/30 01:41:20;;;;;;;;;;;;;;;10.07;42.56;91565.66;2064850;69;20070;-75
2022/03/30 01:43:46;;;;;;;;;;;;;;;9.53;45.71;91564.63;2051701;70;20082;-74
2022/03/30 01:46:11;;;;;;;;;;;;;;;9.89;43.41;91559.94;2052165;70;20086;-76
2022/03/30 01:48:37;;;;;;;;;;;;;;;10.13;40.60;91557.50;2052244;70;20059;-76
2022/03/30 01:51:03;;;;;;;;;;;;;;;10.10;42.45;91553.13;2051715;70;20162;-74
2022/03/30 01:53:28;;;;;;;;;;;;;;;10.13;41.29;91555.41;2052018;70;20482;-74
2022/03/30 01:55:53;;;;;;;;;;;;;;;10.10;40.91;91542.63;2052246;70;20494;-76
2022/03/30 01:58:19;;;;;;;;;;;;;;;10.03;41.82;91540.88;2052326;70;20055;-75
2022/03/30 02:00:45;;;;;;;;;;;;;;;10.03;41.52;91540.88;2064721;69;20062;-75
2022/03/30 02:03:12;;;;;;;;;;;;;;;9.77;43.80;91539.72;2051929;70;20572;-76
2022/03/30 02:05:38;;;;;;;;;;;;;;;9.74;44.39;91532.56;2065046;69;20120;-74
2022/03/30 02:08:03;;;;;;;;;;;;;;;9.71;43.88;91536.63;2064315;69;20063;-75
2022/03/30 02:10:29;;;;;;;;;;;;;;;9.71;44.30;91526.09;2051570;70;20054;-76
2022/03/30 02:12:55;;;;;;;;;;;;;;;9.59;44.53;91531.19;2067234;69;20096;-74
2022/03/30 02:15:22;;;;;;;;;;;;;;;9.72;42.08;91529.66;2068145;69;20208;-75
2022/03/30 02:17:48;;;;;;;;;;;;;;;9.70;42.56;91521.84;2068009;69;20144;-75
2022/03/30 02:20:13;;;;;;;;;;;;;;;9.62;43.42;91521.47;2067561;69;20167;-76
2022/03/30 02:22:40;;;;;;;;;;;;;;;9.26;43.25;91517.75;2068112;69;20135;-74
2022/03/30 02:25:06;;;;;;;;;;;;;;;8.96;44.54;91517.75;2067733;69;20057;-76
2022/03/30 02:27:31;;;;;;;;;;;;;;;9.36;42.89;91513.31;2068114;69;20483;-76
2022/03/30 02:29:57;;;;;;;;;;;;;;;9.40;43.72;91512.78;2064542;69;20061;-76
2022/03/30 02:32:22;;;;;;;;;;;;;;;9.27;44.54;91513.56;2067755;69;20147;-77
2022/03/30 02:34:48;;;;;;;;;;;;;;;9.32;44.36;91515.22;2068611;69;20464;-75
2022/03/30 02:37:14;;;;;;;;;;;;;;;9.54;42.54;91505.00;2068295;69;20087;-76
2022/03/30 02:39:40;;;;;;;;;;;;;;;9.43;43.09;91503.06;2068176;69;20061;-77
2022/03/30 02:42:07;;;;;;;;;;;;;;;9.54;41.22;91498.66;2067428;69;20064;-77
2022/03/30 02:44:33;;;;;;;;;;;;;;;9.57;41.65;91500.19;2068134;69;20065;-74
2022/03/30 02:47:00;;;;;;;;;;;;;;;9.44;43.23;91496.13;2068275;69;20061;-76
2022/03/30 02:49:26;;;;;;;;;;;;;;;9.36;43.94;91498.56;2067755;69;20052;-74
2022/03/30 02:51:52;;;;;;;;;;;;;;;9.02;45.07;91495.59;2068488;69;20041;-74
2022/03/30 02:54:17;;;;;;;;;;;;;;;9.15;44.17;91492.00;2067907;69;20057;-73
2022/03/30 02:56:43;;;;;;;;;;;;;;;9.03;45.46;91490.72;2068009;69;20041;-74
2022/03/30 02:59:09;;;;;;;;;;;;;;;9.17;44.10;91485.75;2068365;69;20132;-75
2022/03/30 03:01:34;;;;;;;;;;;;;;;9.10;44.72;91481.22;2068547;69;20053;-77
2022/03/30 03:04:00;;;;;;;;;;;;;;;9.05;44.18;91479.56;2068477;69;20045;-77
2022/03/30 03:06:25;;;;;;;;;;;;;;;9.02;44.91;91470.31;2068447;69;20057;-76
2022/03/30 03:08:51;;;;;;;;;;;;;;;8.92;45.00;91469.84;2067989;69;20122;-77
2022/03/30 03:11:17;;;;;;;;;;;;;;;9.15;43.04;91468.81;2068488;69;20056;-77
2022/03/30 03:13:42;;;;;;;;;;;;;;;9.09;43.59;91472.06;2059575;69;20491;-77
2022/03/30 03:16:08;;;;;;;;;;;;;;;9.17;42.46;91477.34;2052251;70;20075;-74
2022/03/30 03:18:35;;;;;;;;;;;;;;;9.22;43.22;91469.81;2052262;70;20074;-74
2022/03/30 03:21:00;;;;;;;;;;;;;;;9.07;42.98;91460.00;2052256;70;20192;-76
2022/03/30 03:23:26;;;;;;;;;;;;;;;9.04;43.91;91462.00;2052198;70;20046;-74
2022/03/30 03:25:53;;;;;;;;;;;;;;;8.96;45.07;91461.63;2052262;69;20420;-74
2022/03/30 03:28:19;;;;;;;;;;;;;;;8.88;45.15;91453.53;2065220;69;20051;-74
2022/03/30 03:30:44;;;;;;;;;;;;;;;8.93;44.74;91456.53;2052243;70;20081;-74
2022/03/30 03:33:11;;;;;;;;;;;;;;;8.70;45.00;91455.50;2065133;69;20146;-74
2022/03/30 03:35:36;;;;;;;;;;;;;;;8.87;45.08;91454.19;2052205;70;20116;-76
2022/03/30 03:38:03;;;;;;;;;;;;;;;8.82;45.69;91456.06;2052218;70;20090;-74
2022/03/30 03:40:30;;;;;;;;;;;;;;;8.63;46.74;91456.56;2062417;69;20058;-75
2022/03/30 03:42:56;;;;;;;;;;;;;;;8.76;45.71;91458.59;2052195;70;20053;-76
2022/03/30 03:45:21;;;;;;;;;;;;;;;8.90;44.09;91452.94;2052186;70;20043;-76
2022/03/30 03:47:48;;;;;;;;;;;;;;;8.96;44.58;91444.06;2052344;70;20169;-75
2022/03/30 03:50:14;;;;;;;;;;;;;;;8.70;46.69;91447.06;2052181;70;20047;-76
2022/03/30 03:52:39;;;;;;;;;;;;;;;8.56;46.55;91443.59;2052180;70;20436;-74
2022/03/30 03:55:05;;;;;;;;;;;;;;;8.80;44.27;91433.53;2052158;70;20082;-73
2022/03/30 03:57:35;;;;;;;;;;;;;;;8.94;44.00;91427.88;2065093;69;20120;-74
2022/03/30 04:00:00;;;;;;;;;;;;;;;8.84;45.21;91430.19;2052061;70;20043;-77
2022/03/30 04:02:26;;;;;;;;;;;;;;;8.81;44.52;91429.38;2052717;70;20055;-75
2022/03/30 04:04:51;;;;;;;;;;;;;;;8.76;45.93;91422.13;2052651;70;20058;-77
2022/03/30 04:07:17;;;;;;;;;;;;;;;8.98;44.32;91421.69;2052770;70;20116;-77
2022/03/30 04:09:42;;;;;;;;;;;;;;;8.91;43.67;91417.88;2052763;70;20474;-77
2022/03/30 04:12:08;;;;;;;;;;;;;;;8.89;43.44;91415.00;2052768;70;20402;-77
2022/03/30 04:14:34;;;;;;;;;;;;;;;9.02;43.69;91419.78;2065485;69;20146;-77
2022/03/30 04:16:59;;;;;;;;;;;;;;;9.06;44.44;91413.66;2052671;70;20055;-77
2022/03/30 04:19:25;;;;;;;;;;;;;;;8.81;46.26;91409.72;2052873;70;20050;-76
2022/03/30 04:21:51;;;;;;;;;;;;;;;8.94;44.01;91416.63;2052597;70;20485;-75
2022/03/30 04:24:16;;;;;;;;;;;;;;;8.83;45.28;91412.63;2052892;70;20054;-75
2022/03/30 04:26:42;;;;;;;;;;;;;;;8.24;47.63;91412.59;2065519;69;20046;-75
2022/03/30 04:29:08;;;;;;;;;;;;;;;8.68;46.33;91410.53;2052507;70;20081;-77
2022/03/30 04:31:33;;;;;;;;;;;;;;;8.73;46.84;91408.63;2052621;70;20478;-76
2022/03/30 04:33:59;;;;;;;;;;;;;;;8.83;46.09;91415.44;2052625;70;20055;-76
2022/03/30 04:36:25;;;;;;;;;;;;;;;8.94;45.44;91411.03;2065501;69;20115;-75
2022/03/30 04:38:50;;;;;;;;;;;;;;;8.84;45.67;91411.28;2065579;69;20074;-77
2022/03/30 04:41:16;;;;;;;;;;;;;;;8.93;45.20;91411.63;2065521;69;20432;-77
2022/03/30 04:43:41;;;;;;;;;;;;;;;8.45;47.45;91413.63;2065466;69;20054;-77
2022/03/30 04:46:08;;;;;;;;;;;;;;;8.58;47.09;91413.56;2065416;69;20061;-77
2022/03/30 04:48:34;;;;;;;;;;;;;;;8.76;46.15;91408.09;2065549;69;20202;-78
2022/03/30 04:51:00;;;;;;;;;;;;;;;8.76;46.13;91413.72;2065508;69;20489;-76
2022/03/30 04:53:25;;;;;;;;;;;;;;;8.91;46.09;91406.66;2052538;70;20424;-75
2022/03/30 04:55:51;;;;;;;;;;;;;;;8.65;46.99;91404.06;2052530;70;20057;-76
2022/03/30 04:58:16;;;;;;;;;;;;;;;8.60;47.05;91404.53;2052583;70;20054;-75
2022/03/30 05:00:42;;;;;;;;;;;;;;;8.83;44.94;91397.88;2065287;69;20056;-74
2022/03/30 05:03:08;;;;;;;;;;;;;;;8.78;46.56;91405.38;2065396;69;20502;-74
2022/03/30 05:05:33;;;;;;;;;;;;;;;8.61;47.58;91403.91;2065640;69;20059;-75
2022/03/30 05:07:59;;;;;;;;;;;;;;;8.84;46.90;91407.72;2052548;70;20057;-76
2022/03/30 05:10:24;;;;;;;;;;;;;;;8.77;48.09;91403.22;2052527;70;20507;-76
2022/03/30 05:12:50;;;;;;;;;;;;;;;8.73;47.92;91395.31;2052452;70;20082;-77
2022/03/30 05:15:16;;;;;;;;;;;;;;;8.97;44.00;91395.72;2052446;70;20053;-77
2022/03/30 05:17:46;;;;;;;;;;;;;;;8.81;46.37;91401.31;2052486;70;20050;-78
2022/03/30 05:20:12;;;;;;;;;;;;;;;8.66;47.07;91399.22;2065463;69;20062;-78
2022/03/30 05:22:38;;;;;;;;;;;;;;;8.71;47.41;91394.50;2052609;70;20074;-78
2022/03/30 05:25:03;;;;;;;;;;;;;;;8.85;46.72;91390.28;2052598;70;20050;-76
2022/03/30 05:27:29;;;;;;;;;;;;;;;8.75;48.15;91391.88;2052490;70;20050;-77
2022/03/30 05:29:55;;;;;;;;;;;;;;;8.80;48.32;91385.84;2052346;70;20497;-76
2022/03/30 05:32:20;;;;;;;;;;;;;;;8.83;47.56;91392.25;2065450;69;20132;-76
2022/03/30 05:34:46;;;;;;;;;;;;;;;8.88;48.42;91391.09;2052606;70;20051;-74
2022/03/30 05:37:11;;;;;;;;;;;;;;;8.83;47.34;91390.16;2065432;69;20141;-75
2022/03/30 05:39:41;;;;;;;;;;;;;;;9.05;46.25;91390.47;2052446;70;20050;-77
2022/03/30 05:42:07;;;;;;;;;;;;;;;8.86;47.54;91385.38;2052421;70;20062;-77
2022/03/30 05:44:32;;;;;;;;;;;;;;;8.83;48.69;91381.75;2052349;70;20145;-75
2022/03/30 05:46:58;;;;;;;;;;;;;;;8.83;49.45;91389.44;2052587;69;20058;-76
2022/03/30 05:49:24;;;;;;;;;;;;;;;8.74;49.03;91382.72;2052439;70;20564;-77
2022/03/30 05:51:50;;;;;;;;;;;;;;;8.90;48.35;91385.56;2052542;70;20058;-78
2022/03/30 05:54:15;;;;;;;;;;;;;;;9.01;47.11;91378.31;2065389;69;20047;-76
2022/03/30 05:59:25;;;;;;;;;;;;;;;8.89;47.31;91370.81;2052601;70;20066;-75
2022/03/30 06:01:50;;;;;;;;;;;;;;;9.06;47.15;91371.53;2065350;69;20402;-75
2022/03/30 06:04:16;;;;;;;;;;;;;;;9.08;47.85;91380.78;2052539;70;20066;-77
2022/03/30 06:06:41;;;;;;;;;;;;;;;8.94;48.40;91379.44;2052565;70;20054;-74
2022/03/30 06:09:07;;;;;;;;;;;;;;;8.96;49.05;91377.41;2052548;70;20507;-74
2022/03/30 06:11:33;;;;;;;;;;;;;;;9.19;46.02;91378.44;2052426;70;20573;-74
2022/03/30 06:13:58;;;;;;;;;;;;;;;9.23;47.55;91381.41;2052223;70;20051;-76
2022/03/30 06:16:27;;;;;;;;;;;;;;;9.39;46.33;91377.25;2052348;70;20433;-75
2022/03/30 06:18:54;;;;;;;;;;;;;;;9.35;47.33;91377.06;2065296;69;20142;-76
2022/03/30 06:21:20;;;;;;;;;;;;;;;9.32;47.57;91374.81;2052430;70;20051;-77
2022/03/30 06:23:45;;;;;;;;;;;;;;;8.91;48.95;91378.59;2065225;69;20061;-76
2022/03/30 06:26:11;;;;;;;;;;;;;;;9.30;47.56;91381.06;2052366;70;20053;-78
2022/03/30 06:28:36;;;;;;;;;;;;;;;9.51;47.20;91376.31;2065488;69;20058;-74
2022/03/30 06:31:02;;;;;;;;;;;;;;;9.51;46.91;91381.94;2052279;70;20145;-77
2022/03/30 06:33:27;;;;;;;;;;;;;;;9.60;46.39;91378.84;2065385;69;20435;-75
2022/03/30 06:35:53;;;;;;;;;;;;;;;9.24;48.26;91380.06;2065432;69;20086;-76
2022/03/30 06:38:19;;;;;;;;;;;;;;;9.47;44.10;91376.84;2052352;70;20102;-78
2022/03/30 06:40:46;;;;;;;;;;;;;;;9.62;44.57;91381.00;2052230;70;20070;-76
2022/03/30 06:43:12;;;;;;;;;;;;;;;9.47;47.67;91378.94;2052304;70;20066;-74
2022/03/30 06:45:38;;;;;;;;;;;;;;;9.56;47.05;91375.13;2052078;70;20163;-73
2022/03/30 06:48:03;;;;;;;;;;;;;;;9.83;45.90;91388.22;2052535;70;20137;-77
2022/03/30 06:50:32;;;;;;;;;;;;;;;9.78;47.01;91378.91;2052277;70;20090;-77
2022/03/30 06:52:57;;;;;;;;;;;;;;;9.85;47.08;91366.56;2052270;70;20143;-77
2022/03/30 06:55:23;;;;;;;;;;;;;;;9.79;46.64;91371.91;2052229;70;20126;-77
2022/03/30 06:57:49;;;;;;;;;;;;;;;9.56;46.84;91372.31;2062354;69;20177;-78
2022/03/30 07:00:15;;;;;;;;;;;;;;;9.26;48.71;91368.94;2052024;70;20078;-78
2022/03/30 07:02:41;;;;;;;;;;;;;;;9.40;48.36;91364.66;2065227;69;20047;-78
2022/03/30 07:05:06;;;;;;;;;;;;;;;9.28;49.20;91369.00;2065153;69;20042;-76
2022/03/30 07:10:18;;;;;;;;;;;;;;;9.79;46.71;91362.75;2052285;70;20485;-77
2022/03/30 07:12:47;;;;;;;;;;;;;;;10.09;46.24;91355.59;2062298;69;20094;-78
2022/03/30 07:15:13;;;;;;;;;;;;;;;10.18;46.52;91353.84;2065061;69;20055;-79
2022/03/30 07:17:49;;;;;;;;;;;;;;;10.06;45.02;91364.56;2065106;69;20047;-77
2022/03/30 07:20:14;;;;;;;;;;;;;;;10.10;46.40;91350.69;2065121;69;20106;-76
2022/03/30 07:22:41;;;;;;;;;;;;;;;9.97;45.94;91359.97;2065065;69;20089;-76
2022/03/30 07:25:06;;;;;;;;;;;;;;;10.16;45.69;91365.72;2052169;70;20062;-76
2022/03/30 07:27:32;;;;;;;;;;;;;;;9.99;46.47;91358.00;2065134;69;20487;-77
2022/03/30 07:29:58;;;;;;;;;;;;;;;10.03;45.55;91355.31;2052097;70;20047;-76
2022/03/30 07:32:24;;;;;;;;;;;;;;;10.32;44.81;91353.72;2065016;69;20701;-78
2022/03/30 07:34:52;;;;;;;;;;;;;;;10.56;45.33;91356.75;2052106;70;20119;-79
2022/03/30 07:37:17;;;;;;;;;;;;;;;10.89;42.87;91351.00;2052628;70;20054;-80
2022/03/30 07:39:43;;;;;;;;;;;;;;;10.96;43.79;91351.97;2052712;70;20120;-78
2022/03/30 07:42:09;;;;;;;;;;;;;;;11.09;41.99;91353.88;2052526;70;20521;-76
2022/03/30 07:44:34;;;;;;;;;;;;;;;10.75;43.77;91355.38;2052561;69;20070;-75
2022/03/30 07:47:01;;;;;;;;;;;;;;;11.02;43.31;91348.66;2052652;70;20051;-77
2022/03/30 07:49:26;;;;;;;;;;;;;;;11.08;43.23;91346.06;2052738;70;20054;-77
2022/03/30 07:51:52;;;;;;;;;;;;;;;11.34;42.54;91347.03;2052672;70;20145;-76
2022/03/30 07:54:17;;;;;;;;;;;;;;;11.06;43.38;91340.34;2052704;70;20051;-76
2022/03/30 07:56:43;;;;;;;;;;;;;;;11.01;44.36;91339.47;2052531;70;20047;-75
2022/03/30 07:59:08;;;;;;;;;;;;;;;10.91;43.38;91330.66;2052525;69;20042;-74
2022/03/30 08:01:34;;;;;;;;;;;;;;;10.97;43.92;91342.16;2052608;70;20059;-76
2022/03/30 08:03:59;;;;;;;;;;;;;;;11.05;44.16;91331.19;2065548;69;20123;-80
2022/03/30 08:06:26;;;;;;;;;;;;;;;11.66;42.16;91332.66;2052707;70;20142;-76
2022/03/30 08:08:52;;;;;;;;;;;;;;;10.96;43.65;91335.06;2052613;70;20139;-77
2022/03/30 08:11:17;;;;;;;;;;;;;;;11.25;44.08;91339.66;2052691;70;20061;-73
2022/03/30 08:13:43;;;;;;;;;;;;;;;11.18;43.42;91330.28;2052395;70;20124;-78
2022/03/30 08:16:09;;;;;;;;;;;;;;;11.30;42.09;91332.78;2062839;69;20479;-75
2022/03/30 08:18:34;;;;;;;;;;;;;;;10.81;44.40;91331.00;2052717;69;20190;-77
2022/03/30 08:23:44;;;;;;;;;;;;;;;11.71;40.63;91328.59;2052739;70;20090;-74
2022/03/30 08:26:10;;;;;;;;;;;;;;;11.94;40.92;91333.63;2052514;70;20120;-76
2022/03/30 08:28:35;;;;;;;;;;;;;;;11.84;41.37;91327.66;2062734;69;20142;-74
2022/03/30 08:31:01;;;;;;;;;;;;;;;12.25;40.26;91323.38;2052392;70;20053;-76
2022/03/30 08:33:27;;;;;;;;;;;;;;;12.07;40.53;91334.78;2052584;70;20093;-75
2022/03/30 08:35:55;;;;;;;;;;;;;;;12.16;39.93;91327.31;2052566;69;20050;-76
2022/03/30 08:38:22;;;;;;;;;;;;;;;12.38;39.62;91325.22;2065534;69;20066;-76
2022/03/30 08:40:47;;;;;;;;;;;;;;;12.21;40.54;91320.41;2052437;70;20524;-76
2022/03/30 08:43:12;;;;;;;;;;;;;;;12.08;40.92;91315.75;2052484;70;20485;-76
2022/03/30 08:45:38;;;;;;;;;;;;;;;12.34;39.97;91322.25;2052335;70;20173;-76
2022/03/30 08:48:04;;;;;;;;;;;;;;;11.80;41.42;91323.97;2052384;70;20053;-74
2022/03/30 08:50:30;;;;;;;;;;;;;;;12.04;40.83;91312.78;2052531;70;20057;-72
2022/03/30 08:52:59;;;;;;;;;;;;;;;12.31;39.53;91315.09;2052506;70;20058;-74
2022/03/30 08:55:24;;;;;;;;;;;;;;;12.77;39.80;91317.22;2052495;70;20570;-74
2022/03/30 08:57:50;;;;;;;;;;;;;;;13.04;38.76;91315.91;2052584;70;20138;-73
2022/03/30 09:00:16;;;;;;;;;;;;;;;12.61;40.00;91321.00;2052324;70;20512;-77
2022/03/30 09:02:44;;;;;;;;;;;;;;;12.91;38.86;91312.00;2052408;70;20140;-77
2022/03/30 09:05:15;;;;;;;;;;;;;;;12.77;39.08;91312.28;2052481;70;20062;-78
2022/03/30 09:07:42;;;;;;;;;;;;;;;12.88;38.70;91302.75;2065426;69;20046;-77
2022/03/30 09:10:18;;;;;;;;;;;;;;;13.07;38.19;91294.81;2052495;69;20046;-77
2022/03/30 09:12:44;;;;;;;;;;;;;;;13.25;38.00;91303.13;2052403;70;20111;-77
2022/03/30 09:15:10;;;;;;;;;;;;;;;13.36;37.47;91299.19;2052352;70;20136;-80
2022/03/30 09:17:36;;;;;;;;;;;;;;;13.46;37.31;91297.38;2052664;70;20470;-79
2022/03/30 09:20:05;;;;;;;;;;;;;;;13.25;38.03;91297.50;2052387;70;20046;-77
2022/03/30 09:22:32;;;;;;;;;;;;;;;13.52;38.16;91294.00;2052321;70;20058;-74
2022/03/30 09:24:57;;;;;;;;;;;;;;;13.71;37.01;91286.75;2052408;70;20641;-74
2022/03/30 09:27:24;;;;;;;;;;;;;;;13.08;37.88;91288.50;2054168;70;20152;-76
2022/03/30 09:29:49;;;;;;;;;;;;;;;13.27;38.38;91284.13;2052447;70;20433;-74
2022/03/30 09:32:15;;;;;;;;;;;;;;;13.58;37.85;91294.16;2065334;69;20069;-77
2022/03/30 09:34:50;;;;;;;;;;;;;;;13.92;37.83;91291.53;2052470;70;20541;-79
2022/03/30 09:37:16;;;;;;;;;;;;;;;13.96;36.82;91285.25;2052456;70;20058;-79
2022/03/30 09:39:42;;;;;;;;;;;;;;;14.03;37.39;91286.16;2052483;70;20119;-75
2022/03/30 09:42:08;;;;;;;;;;;;;;;14.28;37.08;91291.00;2065338;69;20470;-76
2022/03/30 09:44:49;;;;;;;;;;;;;;;14.60;36.15;91291.09;2052271;70;20047;-77
2022/03/30 09:47:15;;;;;;;;;;;;;;;14.80;36.03;91282.38;2065240;69;20066;-75
2022/03/30 09:49:44;;;;;;;;;;;;;;;15.03;35.59;91280.75;2052368;70;20551;-75
2022/03/30 09:52:10;;;;;;;;;;;;;;;14.45;35.78;91269.50;2065338;69;20057;-76
2022/03/30 09:54:37;;;;;;;;;;;;;;;14.81;35.67;91266.81;2052447;70;20061;-77
2022/03/30 09:57:07;;;;;;;;;;;;;;;14.99;34.53;91266.50;2052452;70;20074;-77
2022/03/30 09:59:53;;;;;;;;;;;;;;;15.37;34.79;91263.72;2052092;70;20047;-79
2022/03/30 10:02:18;;;;;;;;;;;;;;;15.45;34.71;91255.38;2052337;70;20051;-78
2022/03/30 10:04:44;;;;;;;;;;;;;;;14.85;35.47;91246.34;2065653;69;20084;-75
2022/03/30 10:07:09;;;;;;;;;;;;;;;15.25;34.54;91243.63;2054889;70;20061;-74
2022/03/30 10:09:38;;;;;;;;;;;;;;;15.50;34.32;91244.84;2055387;70;20151;-73
2022/03/30 10:12:03;;;;;;;;;;;;;;;15.93;33.71;91232.19;2055378;70;20085;-72
2022/03/30 10:14:29;;;;;;;;;;;;;;;16.01;33.41;91232.34;2055168;69;20082;-74
2022/03/30 10:16:54;;;;;;;;;;;;;;;15.28;34.06;91233.06;2055555;70;20121;-75
2022/03/30 10:19:20;;;;;;;;;;;;;;;14.95;34.51;91227.44;2055470;70;20050;-74
2022/03/30 10:22:09;;;;;;;;;;;;;;;15.00;34.53;91222.59;2055591;70;20141;-74
2022/03/30 10:24:34;;;;;;;;;;;;;;;15.47;34.41;91226.34;2050610;70;20082;-73
2022/03/30 10:27:02;;;;;;;;;;;;;;;15.66;34.36;91221.75;2055650;70;20066;-73
2022/03/30 10:29:29;;;;;;;;;;;;;;;15.58;34.17;91218.75;2055518;70;20609;-72
2022/03/30 10:32:07;;;;;;;;;;;;;;;15.42;34.69;91213.50;2055487;70;20054;-73
2022/03/30 10:34:32;;;;;;;;;;;;;;;15.61;34.66;91218.09;2055324;70;20054;-74
2022/03/30 10:37:00;;;;;;;;;;;;;;;15.81;34.66;91203.63;2069493;69;20057;-74
2022/03/30 10:39:27;;;;;;;;;;;;;;;15.64;34.55;91205.44;2055210;70;20078;-75
2022/03/30 10:41:54;;;;;;;;;;;;;;;15.47;34.05;91204.38;2055466;70;20449;-78
2022/03/30 10:44:35;;;;;;;;;;;;;;;14.76;35.30;91202.97;2055299;70;20107;-77
2022/03/30 10:47:08;;;;;;;;;;;;;;;15.05;34.94;91200.72;2055390;70;20054;-76
2022/03/30 10:49:38;;;;;;;;;;;;;;;15.35;35.04;91198.50;2055209;69;20114;-75
2022/03/30 10:52:22;;;;;;;;;;;;;;;15.55;34.03;91194.59;2055264;70;20103;-75
2022/03/30 10:54:50;;;;;;;;;;;;;;;15.40;34.32;91200.00;2055246;69;20061;-73
2022/03/30 10:57:34;;;;;;;;;;;;;;;15.46;34.35;91193.72;2055183;69;20073;-75
2022/03/30 11:00:04;;;;;;;;;;;;;;;15.33;35.02;91194.88;2054888;70;20119;-76
2022/03/30 11:02:40;;;;;;;;;;;;;;;15.37;35.00;91189.31;2055144;70;20073;-75
2022/03/30 11:05:12;;;;;;;;;;;;;;;15.14;35.25;91196.66;2055261;70;20112;-76
2022/03/30 11:07:38;;;;;;;;;;;;;;;15.33;35.74;91197.72;2055196;69;20058;-74
2022/03/30 11:10:33;;;;;;;;;;;;;;;15.58;35.65;91190.38;2068050;69;20148;-73
2022/03/30 11:13:04;;;;;;;;;;;;;;;15.64;36.02;91194.09;2053058;69;20054;-73
2022/03/30 11:15:31;;;;;;;;;;;;;;;15.32;36.03;91190.63;2055204;69;20116;-74
2022/03/30 11:18:15;;;;;;;;;;;;;;;14.94;36.86;91189.19;2055680;70;20061;-76
2022/03/30 11:20:40;;;;;;;;;;;;;;;13.28;40.75;91186.66;2055244;69;20066;-73
2022/03/30 11:23:18;;;;;;;;;;;;;;;13.80;40.38;91180.94;2055154;70;20157;-74
2022/03/30 11:25:51;;;;;;;;;;;;;;;14.54;38.85;91186.19;2055333;70;20454;-75
2022/03/30 11:28:17;;;;;;;;;;;;;;;14.87;39.00;91189.72;2055190;69;20500;-76
2022/03/30 11:30:43;;;;;;;;;;;;;;;14.71;38.62;91181.63;2055117;70;20146;-74
2022/03/30 11:33:10;;;;;;;;;;;;;;;15.14;38.71;91186.03;2055213;70;20046;-75
2022/03/30 11:35:37;;;;;;;;;;;;;;;14.97;38.11;91170.09;2068299;69;20170;-73
2022/03/30 11:38:05;;;;;;;;;;;;;;;15.37;37.23;91180.78;2055172;69;20138;-73
2022/03/30 11:40:34;;;;;;;;;;;;;;;14.59;39.33;91175.69;2055171;70;20058;-73
2022/03/30 11:42:59;;;;;;;;;;;;;;;15.00;38.23;91180.09;2055417;69;20042;-75
2022/03/30 11:45:26;;;;;;;;;;;;;;;14.42;39.83;91174.56;2054660;70;20066;-76
2022/03/30 11:47:52;;;;;;;;;;;;;;;14.80;38.10;91176.81;2055064;69;20159;-75
2022/03/30 11:50:32;;;;;;;;;;;;;;;15.21;37.73;91164.19;2055348;70;20181;-76
2022/03/30 11:53:02;;;;;;;;;;;;;;;15.30;37.02;91156.56;2054900;70;20057;-76
2022/03/30 11:55:32;;;;;;;;;;;;;;;15.29;37.08;91158.66;2055314;70;20066;-76
2022/03/30 11:57:58;;;;;;;;;;;;;;;15.08;37.62;91154.03;2055087;70;20062;-75
2022/03/30 12:00:25;;;;;;;;;;;;;;;14.79;38.58;91147.06;2068134;69;20145;-75
2022/03/30 12:02:54;;;;;;;;;;;;;;;14.80;39.27;91149.22;2055051;70;20165;-78
2022/03/30 12:05:19;;;;;;;;;;;;;;;14.57;39.57;91148.06;2067969;69;20132;-74
2022/03/30 12:07:50;;;;;;;;;;;;;;;14.26;39.76;91140.97;2055060;70;20529;-75
2022/03/30 12:10:16;;;;;;;;;;;;;;;14.35;40.36;91141.88;2055102;70;20169;-75
2022/03/30 12:12:42;;;;;;;;;;;;;;;14.95;38.23;91131.13;2054964;69;20082;-77
2022/03/30 12:15:09;;;;;;;;;;;;;;;15.23;38.57;91124.56;2054819;70;20424;-75
2022/03/30 12:17:35;;;;;;;;;;;;;;;14.83;39.15;91121.66;2055242;69;20052;-75
2022/03/30 12:20:03;;;;;;;;;;;;;;;14.10;41.14;91127.16;2065372;69;20109;-75
2022/03/30 12:22:28;;;;;;;;;;;;;;;14.65;39.82;91113.50;2055247;70;20056;-74
2022/03/30 12:24:54;;;;;;;;;;;;;;;14.88;39.62;91106.88;2055508;70;20050;-78
2022/03/30 12:27:20;;;;;;;;;;;;;;;15.09;38.81;91108.00;2068362;69;20062;-78
2022/03/30 12:29:46;;;;;;;;;;;;;;;15.49;37.79;91105.19;2055392;69;20121;-77
2022/03/30 12:32:15;;;;;;;;;;;;;;;15.15;38.87;91093.94;2055439;69;20093;-81
2022/03/30 12:34:40;;;;;;;;;;;;;;;15.08;38.83;91100.19;2055650;70;20093;-76
2022/03/30 12:37:08;;;;;;;;;;;;;;;15.36;37.83;91097.16;2055422;70;20093;-76
2022/03/30 12:39:38;;;;;;;;;;;;;;;15.89;36.75;91087.41;2055400;70;20042;-76
2022/03/30 12:42:04;;;;;;;;;;;;;;;15.87;37.55;91084.53;2055521;69;20062;-84
2022/03/30 12:44:31;;;;;;;;;;;;;;;14.87;38.78;91087.75;2068586;69;20422;-79
2022/03/30 12:46:58;;;;;;;;;;;;;;;15.62;37.02;91077.00;2055433;70;20062;-80
2022/03/30 12:49:41;;;;;;;;;;;;;;;16.06;37.16;91073.47;2068532;69;20053;-76
2022/03/30 12:52:15;;;;;;;;;;;;;;;16.55;37.58;91068.47;2068475;69;20057;-74
2022/03/30 12:54:43;;;;;;;;;;;;;;;15.81;37.04;91070.28;2068627;69;20054;-76
2022/03/30 12:57:09;;;;;;;;;;;;;;;16.47;36.06;91060.56;2055361;70;20126;-85
2022/03/30 12:59:34;;;;;;;;;;;;;;;15.66;36.93;91054.41;2068109;69;20127;-83
2022/03/30 13:02:17;;;;;;;;;;;;;;;16.21;36.59;91060.91;2055043;69;20062;-83